Terminal Aerodrome Forecast
Issued by NWS

Home | Current Version | Previous Version | Text Only | Print | Product List | Glossary On
Versions: 1 2 3 4 5 6 7 8 9 10 11 12 13 14 15
000
FTUS42 KGSP 010538
TAFHKY
TAF
KHKY 010538Z 0106/0206 01003KT P6SM BKN150
      TEMPO 0107/0110 4SM BR FEW150
     FM011300 03003KT P6SM SCT150
     FM011600 07003KT P6SM BKN045 PROB30 0118/0124 4SM -TSRA
      BKN030CB
     FM020000 02003KT P6SM BKN150=

USA.gov is the U.S. government's official web portal to all federal, state and local government web resources and services.